Meteo4 di Emilio Bellavite Il primo osservatorio Meteo di Verona  
 
lunedì 11 dicembre 2017
 
 
dati in tempo reale
Di seguito i dati in tempo reale delle stazioni on line, suddivise per regione, della rete di Meteo4. Cliccando sul link della stazione, ove presente, si accederà al sito web personale.
Stazioni online
Regione -
Località Giorno Ora Temp. Umid. Relat. Dew Point Press. Atm. Velocità Vento Direz. Vento Precip. Temp.
Min
Temp.
Max
 
 
Regione ABRUZZO
Località Giorno Ora Temp. Umid. Relat. Dew Point Press. Atm. Velocità Vento Direz. Vento Precip. Temp.
Min
Temp.
Max
San Salvo3 (CH) 11/12/17 03.11 13.7 °C 64 % 7.0 °C 1006.2 hPa 33.8 Km/h S 0.0 mm  11.8 °C 14.1 °C
Vasto (CH) 10/12/17 21.01 12.0 °C 10 % -18.7 °C 1009.4 hPa 31.9 Km/h N 0.0 mm  0.1 °C 12.0 °C
 
 
Regione BASILICATA
Località Giorno Ora Temp. Umid. Relat. Dew Point Press. Atm. Velocità Vento Direz. Vento Precip. Temp.
Min
Temp.
Max
Miglionico (MT) 11/12/17 03.00 6.6 °C 74 % 2.2 °C 1014.9 hPa 14.5 Km/h S 0.0 mm  6.0 °C 6.7 °C
 
 
Regione CALABRIA
Località Giorno Ora Temp. Umid. Relat. Dew Point Press. Atm. Velocità Vento Direz. Vento Precip. Temp.
Min
Temp.
Max
Bisignano (CS) 11/12/17 02.53 9.9 °C 66 % 3.8 °C 1016.5 hPa 18.1 Km/h SE 0.0 mm  8.7 °C 10.2 °C
 
 
Regione CAMPANIA
Località Giorno Ora Temp. Umid. Relat. Dew Point Press. Atm. Velocità Vento Direz. Vento Precip. Temp.
Min
Temp.
Max
Torre Annunziata (NA) 11/12/17 01.35 13.0 °C 69 % 7.4 °C 1015.4 hPa 0.0 Km/h E 0.0 mm  13.0 °C 13.0 °C
 
 
Regione EMILIA ROMAGNA
Località Giorno Ora Temp. Umid. Relat. Dew Point Press. Atm. Velocità Vento Direz. Vento Precip. Temp.
Min
Temp.
Max
Bellaria Igea Marina (RN) 11/12/17 02.53 1.3 °C 94 % 0.5 °C 1002.4 hPa 8.0 Km/h NW 0.0 mm  1.3 °C 1.7 °C
Bellaria Igea Marina2 (RN) 11/12/17 02.53 1.5 °C 94 % 0.6 °C 1002.3 hPa 11.3 Km/h WNW 0.0 mm  1.5 °C 1.8 °C
Bellaria Igea Marina3 (RN) 11/12/17 02.53 1.2 °C 79 % -2.0 °C 1001.2 hPa 14.8 Km/h W 0.0 mm  1.2 °C 1.5 °C
Carpi (MO) 11/12/17 02.54 -0.2 °C 95 % -0.9 °C 1003.2 hPa 3.0 Km/h NW 0.0 mm  -0.6 °C -0.2 °C
Filo di Argenta (FE) 11/12/17 02.55 -0.2 °C 94 % -1.1 °C 1004.0 hPa 11.1 Km/h W 0.0 mm  -0.3 °C 0.4 °C
Masiera di Bagnacavallo (RA) 11/12/17 02.48 0.8 °C 94 % -0.1 °C 1002.4 hPa 10.2 Km/h W 0.0 mm  0.7 °C 0.8 °C
Migliarino (FE) 11/12/17 03.10 2.0 °C 88 % 0.2 °C 1001.8 hPa 5.0 Km/h SW 0.0 mm  2.0 °C 2.2 °C
Ponte San Pellegrino (MO) 11/12/17 03.09 -0.1 °C 99 % -0.2 °C 993.4 hPa 6.1 Km/h SW 0.0 mm  -0.4 °C -0.1 °C
Riccione (RN) 11/12/17 02.00 2.3 °C 92 % 1.1 °C 1003.5 hPa 6.4 Km/h NW 0.3 mm  2.2 °C 3.1 °C
Rimini (RN) 11/12/17 02.50 2.1 °C 89 % 0.5 °C 1003.1 hPa 0.0 Km/h WNW 0.5 mm  2.1 °C 2.3 °C
Rimini Zona Palas (RN) 11/12/17 02.37 1.7 °C 94 % 1.1 °C 1003.6 hPa 9.7 Km/h WNW 0.3 mm  1.7 °C 1.8 °C
San Potito Lugo (RA) 11/12/17 03.10 0.6 °C 87 % -1.3 °C 1008.4 hPa 1.1 Km/h NW 0.6 mm  0.5 °C 0.7 °C
Santarcangelo di Romagna (RN) 11/12/17 03.11 1.4 °C 87 % -0.5 °C 1003.2 hPa 5.4 Km/h W 0.0 mm  1.4 °C 1.6 °C
Stiore - Monteveglio (BO) 11/12/17 03.10 -0.7 °C 96 % -1.3 °C 1000.5 hPa 0.0 Km/h W 0.0 mm  -0.8 °C -0.7 °C
 
 
Regione FRIULI V.G.
Località Giorno Ora Temp. Umid. Relat. Dew Point Press. Atm. Velocità Vento Direz. Vento Precip. Temp.
Min
Temp.
Max
Budoia (PN) 11/12/17 02.45 2.1 °C 96 % 1.5 °C 1002.7 hPa 6.4 Km/h NW 13.8 mm  1.0 °C 2.1 °C
Campoformido (UD) 11/12/17 02.52 1.9 °C 73 % -2.5 °C 1002.8 hPa 1.4 Km/h N 8.0 mm  0.6 °C 1.8 °C
Fogliano Redipuglia (GO) 11/12/17 03.04 5.5 °C 98 % 5.2 °C 1001.9 hPa 12.4 Km/h E 10.2 mm  2.3 °C 5.5 °C
Fontanafredda (PN) 11/12/17 02.54 0.4 °C 99 % 0.3 °C 1002.7 hPa 1.7 Km/h WSW 7.1 mm  0.2 °C 0.4 °C
Gorizia (GO) 11/12/17 02.53 3.4 °C 93 % 2.3 °C 1001.9 hPa 2.2 Km/h NNE 17.6 mm  1.0 °C 3.5 °C
Gradisca d'Isonzo (GO) 11/12/17 02.54 3.9 °C 94 % 3.0 °C 1003.2 hPa 0.0 Km/h NE 0.0 mm  1.8 °C 3.9 °C
Ovaro loc. Liariis (UD) 11/12/17 02.45 -1.8 °C 94 % -2.7 °C 1007.1 hPa 0.0 Km/h --- 0.0 mm  -2.4 °C -1.8 °C
Pordenone (PN) 11/12/17 02.45 2.2 °C 95 % 1.4 °C 1003.3 hPa 0.0 Km/h --- 6.4 mm  1.9 °C 2.2 °C
Sacile (PN) 11/12/17 02.51 0.8 °C 97 % 0.4 °C 1002.3 hPa 1.6 Km/h WSW 6.6 mm  0.8 °C 1.2 °C
Staranzano (GO) 11/12/17 03.00 4.0 °C 94 % 3.1 °C 1002.6 hPa 0.0 Km/h NNW 19.3 mm  2.1 °C 4.0 °C
 
 
Regione LAZIO
Località Giorno Ora Temp. Umid. Relat. Dew Point Press. Atm. Velocità Vento Direz. Vento Precip. Temp.
Min
Temp.
Max
Capodimonte (VT) 11/12/17 02.50 12.7 °C 96 % 12.0 °C 1008.5 hPa 4.8 Km/h N 0.4 mm  11.7 °C 12.7 °C
Caprarola Centro Storico (VT) 11/12/17 02.53 11.1 °C 100 % 11.1 °C 1006.0 hPa 10.0 Km/h NE 11.3 mm  8.9 °C 11.1 °C
Civita Castellana (VT) 11/12/17 02.54 11.9 °C 93 % 10.8 °C 1008.9 hPa 19.6 Km/h S 5.2 mm  8.6 °C 11.9 °C
Marta (VT) 11/12/17 02.55 12.3 °C 93 % 11.2 °C 1004.6 hPa 9.3 Km/h WNW 0.6 mm  11.3 °C 12.3 °C
Pomezia (RM) 11/12/17 03.10 14.2 °C 87 % 12.0 °C 1009.3 hPa 17.7 Km/h SSE 0.8 mm  13.3 °C 14.2 °C
Ronciglione Centro (VT) 11/12/17 03.10 11.2 °C 98 % 10.9 °C 1008.0 hPa 14.1 Km/h SW 7.0 mm  9.7 °C 11.2 °C
S. Lorenzo Nuovo (VT) 11/12/17 03.10 10.4 °C 78 % 6.7 °C 1004.1 hPa 40.0 Km/h SW 0.0 mm  9.6 °C 10.5 °C
Tuscania (VT) 10/12/17 22.45 12.4 °C 88 % 10.5 °C 1010.1 hPa 9.6 Km/h SSW 2.8 mm  -1.2 °C 12.4 °C
Valentano (VT) 11/12/17 03.10 10.8 °C 96 % 10.0 °C 1006.2 hPa 32.3 Km/h SE 0.8 mm  10.0 °C 10.8 °C
Viterbo Santa Barbara (VT) 10/12/17 22.07 9.9 °C 91 % 8.5 °C 1009.4 hPa 48.1 Km/h S 1.5 mm  -2.8 °C 9.9 °C
Vitorchiano Pallone (VT) 10/12/17 18.30 7.2 °C 88 % 5.4 °C 1010.3 hPa 24.1 Km/h S 0.3 mm  -2.8 °C 7.2 °C
 
 
Regione LIGURIA
Località Giorno Ora Temp. Umid. Relat. Dew Point Press. Atm. Velocità Vento Direz. Vento Precip. Temp.
Min
Temp.
Max
Arenzano (GE) 11/12/17 02.53 5.6 °C 94 % 4.7 °C 999.8 hPa 4.8 Km/h SW 2.2 mm  4.6 °C 5.6 °C
Cosseria Lidora (SV) 11/12/17 02.45 -1.9 °C 81 % -4.8 °C 1003.2 hPa 3.2 Km/h WNW 0.0 mm  -2.1 °C -1.0 °C
Genova Albaro (GE) 11/12/17 02.53 5.5 °C 98 % 5.2 °C 997.0 hPa 2.8 Km/h NW 2.3 mm  4.4 °C 5.6 °C
Genova Erzelli (GE) 11/12/17 02.47 2.7 °C 91 % 1.3 °C 999.4 hPa 29.0 Km/h N 3.2 mm  2.2 °C 2.9 °C
Loano (SV) 11/12/17 02.55 5.4 °C 92 % 4.2 °C 999.1 hPa 3.0 Km/h W 5.2 mm  4.0 °C 5.6 °C
Ortonovo (SP) 11/12/17 03.10 12.9 °C 97 % 12.4 °C 997.8 hPa 3.2 Km/h N 3.6 mm  12.8 °C 13.1 °C
Varese Ligure (SP) 11/12/17 03.10 10.8 °C 82 % 7.9 °C 988.8 hPa 10.0 Km/h S 8.1 mm  9.2 °C 11.7 °C
 
 
Regione LOMBARDIA
Località Giorno Ora Temp. Umid. Relat. Dew Point Press. Atm. Velocità Vento Direz. Vento Precip. Temp.
Min
Temp.
Max
Besozzo (VA) 10/12/17 21.48 -0.3 °C 89 % -1.9 °C 1006.0 hPa 0.0 Km/h --- 0.0 mm  -5.8 °C 2.6 °C
Brebbia (VA) 10/12/17 19.40 0.2 °C 87 % -1.7 °C 1006.8 hPa 1.6 Km/h N 0.0 mm  -3.9 °C 3.2 °C
Calcinato (BS) 11/12/17 02.53 0.1 °C 93 % -0.9 °C 1005.5 hPa 6.4 Km/h N 0.0 mm  -0.5 °C 0.3 °C
Cassano Magnago (VA) 11/12/17 02.56 -0.4 °C 95 % -1.2 °C 1002.6 hPa 0.0 Km/h NW 0.0 mm  -0.6 °C -0.3 °C
Cavaria con Premezzo (VA) 11/12/17 02.53 -0.2 °C 94 % -1.1 °C 1002.2 hPa 0.0 Km/h NW 0.0 mm  -0.4 °C -0.2 °C
Dorno (PV) 11/12/17 02.53 0.1 °C 97 % -0.3 °C 1003.8 hPa 0.0 Km/h WNW 0.0 mm  -0.1 °C 0.2 °C
Esine (BS) 11/12/17 02.53 0.4 °C 94 % -0.5 °C 1001.8 hPa 0.0 Km/h WSW 0.0 mm  -0.1 °C 0.4 °C
Gaggiano (MI) 11/12/17 02.54 -0.6 °C 95 % -1.3 °C 1003.0 hPa 3.0 Km/h W 0.2 mm  -0.8 °C -0.6 °C
Laxolo (BG) 11/12/17 02.58 -1.8 °C 83 % -4.3 °C 995.6 hPa 0.0 Km/h N 0.0 mm  -4.9 °C -0.1 °C
Lesmo (MB) 11/12/17 02.55 -0.5 °C 91 % -1.8 °C 1003.7 hPa 0.0 Km/h --- 0.0 mm  -1.1 °C -0.5 °C
Lovere (BG) 11/12/17 03.00 0.5 °C 100 % 0.5 °C 1001.9 hPa 0.0 Km/h NNW 0.0 mm  0.4 °C 0.6 °C
Malnate San Salvatore (VA) 11/12/17 03.00 0.1 °C 94 % -0.8 °C 1003.5 hPa 0.0 Km/h --- 0.0 mm  -0.3 °C 0.1 °C
Mezzana Bigli (PV) 11/12/17 02.50 -0.4 °C 95 % -1.1 °C 1002.6 hPa 0.0 Km/h S 0.0 mm  -0.8 °C -0.4 °C
Montagna in Valtellina (SO) 11/12/17 03.10 -1.6 °C 94 % -2.5 °C 1004.3 hPa 0.0 Km/h SE 3.2 mm  -1.8 °C -1.6 °C
Morbegno (SO) 11/12/17 03.10 -0.8 °C 91 % -2.1 °C 1005.2 hPa 0.0 Km/h E 0.0 mm  -1.1 °C -0.8 °C
Ostiano (CR) 11/12/17 03.06 0.2 °C 92 % -0.9 °C 1001.1 hPa 0.0 Km/h W 0.0 mm  0.1 °C 0.2 °C
Rivalta sul Mincio (MN) 11/12/17 02.54 0.2 °C 95 % -0.5 °C 1003.9 hPa 1.5 Km/h W 0.0 mm  0.0 °C 0.2 °C
Vigevano (PV) 10/12/17 23.51 0.0 °C 86 % -2.1 °C 999.1 hPa 0.0 Km/h N 0.0 mm  -1.7 °C 2.2 °C
 
 
Regione MARCHE
Località Giorno Ora Temp. Umid. Relat. Dew Point Press. Atm. Velocità Vento Direz. Vento Precip. Temp.
Min
Temp.
Max
Ancona (AN) 11/12/17 02.55 13.2 °C 61 % 5.9 °C 1004.9 hPa 3.2 Km/h SSE 0.0 mm  12.5 °C 14.1 °C
Barbara (AN) 11/12/17 02.53 12.8 °C 77 % 8.9 °C 1005.6 hPa 19.1 Km/h SSE 0.0 mm  11.9 °C 13.2 °C
Ca' Gallo (PU) 11/12/17 03.04 14.0 °C 79 % 10.4 °C 1002.3 hPa 12.6 Km/h S 0.5 mm  11.2 °C 14.0 °C
Montelabbate (PU) 11/12/17 03.02 14.7 °C 70 % 9.3 °C 1001.9 hPa 0.3 Km/h NE 0.0 mm  12.4 °C 14.8 °C
San Benedetto del Tronto (AP) 10/12/17 22.01 8.8 °C 57 % 0.7 °C 1006.0 hPa 0.0 Km/h SW 0.0 mm  3.0 °C 9.2 °C
 
 
Regione MOSELLE
Località Giorno Ora Temp. Umid. Relat. Dew Point Press. Atm. Velocità Vento Direz. Vento Precip. Temp.
Min
Temp.
Max
Seremange Erzange (Moselle) 11/12/17 03.10 5.3 °C 97 % 4.9 °C 985.9 hPa 4.7 Km/h ESE 0.0 mm  4.4 °C 6.6 °C
 
 
Regione PIEMONTE
Località Giorno Ora Temp. Umid. Relat. Dew Point Press. Atm. Velocità Vento Direz. Vento Precip. Temp.
Min
Temp.
Max
Borgofranco d'Ivrea (TO) 11/12/17 02.53 -1.2 °C 89 % -2.8 °C 1002.8 hPa 10.1 Km/h NNE 0.0 mm  -1.2 °C -0.6 °C
Magnano (BI) 11/12/17 02.54 -1.6 °C 72 % -6.0 °C 1001.1 hPa 0.0 Km/h SW 0.0 mm  -2.2 °C -1.5 °C
Monasterolo Torinese (TO) 11/12/17 02.55 -1.7 °C 77 % -5.2 °C 999.9 hPa 0.0 Km/h --- 0.0 mm  -1.9 °C -1.6 °C
Mongrando San Michele (BI) 11/12/17 02.55 -1.6 °C 87 % -3.4 °C 1002.3 hPa 0.0 Km/h --- 0.0 mm  -1.6 °C -1.4 °C
Muzzano (BI) 11/12/17 02.30 -2.2 °C 83 % -4.7 °C 1002.2 hPa 0.0 Km/h --- 0.0 mm  -2.3 °C -2.2 °C
Nichelino (TO) 11/12/17 03.00 -0.7 °C 64 % -6.7 °C 1002.7 hPa 0.0 Km/h SE 0.0 mm  -0.7 °C -0.1 °C
Novara (NO) 11/12/17 01.50 -0.9 °C 86 % -3.0 °C 1003.7 hPa 0.0 Km/h --- 0.0 mm  -1.1 °C -0.9 °C
Ostana (CN) 10/12/17 11.53 -7.4 °C 50 % -16.1 °C 1010.8 hPa 1.6 Km/h S 0.0 mm  -8.8 °C -6.1 °C
Parella (TO) 11/12/17 03.04 -0.8 °C 85 % -3.1 °C 1001.2 hPa 0.0 Km/h E 0.0 mm  -0.9 °C -0.3 °C
Pecetto Torinese (TO) 11/12/17 03.03 -1.7 °C 70 % -6.4 °C 999.5 hPa 0.0 Km/h WNW 0.0 mm  -1.7 °C -1.5 °C
Pila Valsesia (VC) 11/12/17 02.50 -2.9 °C 91 % -4.2 °C 1001.6 hPa 0.0 Km/h --- 0.4 mm  -3.2 °C -2.9 °C
Piovà Massaia (AT) 11/12/17 03.10 -1.6 °C 78 % -4.9 °C 1002.0 hPa 0.0 Km/h NNE 0.0 mm  -1.8 °C -1.4 °C
Pozzolo Formigaro (AL) 11/12/17 02.56 -1.2 °C 97 % -1.6 °C 1003.5 hPa 2.2 Km/h WNW 0.0 mm  -1.2 °C -1.1 °C
Pray (BI) 10/12/17 20.12 -1.3 °C 86 % -3.3 °C 1006.0 hPa 0.0 Km/h --- 0.0 mm  -6.8 °C 1.8 °C
Soriso (NO) 11/12/17 02.50 -1.1 °C 93 % -2.0 °C 1003.5 hPa 0.0 Km/h --- 0.0 mm  -1.2 °C -0.7 °C
Torino Regio Parco (TO) 11/12/17 03.11 0.7 °C 77 % -2.9 °C 1004.7 hPa 0.7 Km/h E 0.0 mm  0.2 °C 0.7 °C
Valenza (AL) 11/12/17 03.02 -1.2 °C 94 % -2.1 °C 1002.9 hPa 0.0 Km/h WSW 0.0 mm  -1.2 °C -0.8 °C
Viozene Toria (CN) 11/12/17 03.10 4.2 °C 88 % 2.4 °C 987.7 hPa 6.0 Km/h NE 0.3 mm  0.2 °C 4.6 °C
 
 
Regione PUGLIA
Località Giorno Ora Temp. Umid. Relat. Dew Point Press. Atm. Velocità Vento Direz. Vento Precip. Temp.
Min
Temp.
Max
Acquaviva delle Fonti (BA) 11/12/17 02.53 7.4 °C 79 % 4.0 °C 1015.0 hPa 5.4 Km/h S 0.0 mm  6.6 °C 7.8 °C
S. Giovanni Rotondo (FG) 11/12/17 02.55 5.7 °C 82 % 2.9 °C 1014.9 hPa 0.0 Km/h --- 0.0 mm  3.7 °C 5.8 °C
Taranto (TA) 11/12/17 02.05 12.6 °C 62 % 5.5 °C 1013.6 hPa 11.9 Km/h W 0.0 mm  12.2 °C 12.7 °C
Torremaggiore (FG) 07/12/17 17.27 9.7 °C 78 % 6.0 °C 1028.8 hPa 0.0 Km/h O 0.0 mm  5.0 °C 14.6 °C
Vieste (FG) 11/12/17 03.11 10.5 °C 67 % 4.6 °C 1013.5 hPa 16.7 Km/h ESE 0.0 mm  10.4 °C 11.4 °C
 
 
Regione SARDEGNA
Località Giorno Ora Temp. Umid. Relat. Dew Point Press. Atm. Velocità Vento Direz. Vento Precip. Temp.
Min
Temp.
Max
Bitti (NU) 11/12/17 02.53 11.5 °C 84 % 8.9 °C 1007.7 hPa 5.8 Km/h ESE 0.5 mm  11.5 °C 11.8 °C
Bonorva (SS) 11/12/17 02.50 12.8 °C 78 % 9.1 °C 1006.2 hPa 19.3 Km/h SSW 0.2 mm  12.5 °C 12.9 °C
Borore (NU) 11/12/17 02.54 10.8 °C 95 % 10.0 °C 1007.9 hPa 4.8 Km/h SSW 2.4 mm  10.8 °C 12.3 °C
Iglesias (CI) 11/12/17 02.58 14.6 °C 79 % 11.0 °C 1010.4 hPa 16.3 Km/h SSE 0.0 mm  14.1 °C 14.9 °C
Oristano (OR) 11/12/17 03.10 15.4 °C 75 % 11.0 °C 1006.4 hPa 5.8 Km/h SSE 0.0 mm  15.4 °C 16.3 °C
Orosei (NU) 11/12/17 02.56 15.9 °C 75 % 11.5 °C 1006.8 hPa 6.4 Km/h SSE 0.0 mm  14.9 °C 16.1 °C
San Vito (CA) 11/12/17 03.11 14.6 °C 74 % 10.0 °C 1001.8 hPa 1.3 Km/h WSW 0.0 mm  14.5 °C 16.1 °C
Sinnai (CA) 10/12/17 23.55 14.5 °C 84 % 11.8 °C 1012.3 hPa 4.8 Km/h SW 0.4 mm  5.3 °C 14.5 °C
 
 
Regione SICILIA
Località Giorno Ora Temp. Umid. Relat. Dew Point Press. Atm. Velocità Vento Direz. Vento Precip. Temp.
Min
Temp.
Max
Barcellona P.G. Centro (ME) 11/12/17 02.53 9.1 °C 67 % 3.3 °C 1018.5 hPa 3.2 Km/h ESE 0.0 mm  8.6 °C 12.2 °C
Barcellona Pozzo di Gotto (ME) 11/12/17 02.53 10.3 °C 62 % 3.4 °C 1018.5 hPa 7.0 Km/h SW 0.0 mm  10.1 °C 11.9 °C
Brolo c/da Parrazzà (ME) 11/12/17 03.00 9.3 °C 62 % 2.4 °C 1018.4 hPa 18.0 Km/h ESE 0.0 mm  8.0 °C 9.4 °C
Buccheri (SR) 11/12/17 02.44 6.0 °C 68 % 0.5 °C 1013.0 hPa 0.0 Km/h SSW 0.0 mm  3.7 °C 6.0 °C
Caltabellotta (AG) 11/12/17 02.50 7.6 °C 96 % 7.0 °C 1018.8 hPa 10.0 Km/h SE 0.0 mm  5.5 °C 7.6 °C
Cammarata (AG) 11/12/17 02.53 6.0 °C 68 % 0.5 °C 1020.6 hPa 12.2 Km/h E 0.0 mm  4.4 °C 7.1 °C
Cefalù (PA) 11/12/17 01.06 14.1 °C 55 % 5.2 °C 1013.9 hPa 18.9 Km/h SW 0.0 mm  13.3 °C 14.1 °C
Mirabella Imbaccari (CT) 11/12/17 02.59 8.3 °C 86 % 6.1 °C 1021.4 hPa 1.9 Km/h NW 0.0 mm  6.3 °C 8.3 °C
Pace del Mela (ME) 11/12/17 03.10 9.4 °C 53 % 0.3 °C 1018.9 hPa 6.4 Km/h SSE 0.0 mm  8.9 °C 10.3 °C
Pedara (CT) 11/12/17 03.10 7.8 °C 67 % 2.0 °C 1013.5 hPa 9.6 Km/h WSW 0.0 mm  4.7 °C 7.9 °C
Piraino contr. Fiumara (ME) 11/12/17 02.55 7.1 °C 76 % 3.1 °C 1018.5 hPa 3.0 Km/h NE 0.0 mm  5.3 °C 7.3 °C
San Giovanni la Punta Trappeto (CT) 11/12/17 02.55 10.4 °C 75 % 6.2 °C 1019.5 hPa 4.8 Km/h NW 0.0 mm  7.2 °C 10.4 °C
 
 
Regione TOSCANA
Località Giorno Ora Temp. Umid. Relat. Dew Point Press. Atm. Velocità Vento Direz. Vento Precip. Temp.
Min
Temp.
Max
Avenza-Carrara (MS) 11/12/17 02.40 13.2 °C 89 % 11.4 °C 1004.1 hPa 0.0 Km/h N 2.8 mm  13.1 °C 13.7 °C
Bientina (PI) 11/12/17 02.53 13.6 °C 86 % 11.3 °C 1001.0 hPa 5.0 Km/h NNW 5.4 mm  13.2 °C 13.6 °C
Carmignano loc. Seano (PO) 11/12/17 02.54 14.4 °C 86 % 12.1 °C 1001.6 hPa 22.2 Km/h SSW 1.3 mm  13.5 °C 14.5 °C
Castelnuovo V.C. (PI) 11/12/17 02.51 10.5 °C 97 % 10.0 °C 1002.3 hPa 2.2 Km/h ESE 0.6 mm  9.9 °C 10.5 °C
Castiglione della Pescaia Vaticino (GR) 11/12/17 02.48 15.1 °C 82 % 12.0 °C 1008.6 hPa 4.3 Km/h SSE 0.0 mm  14.7 °C 15.1 °C
Isola d'Elba Marina di Campo (LI) 11/12/17 02.30 16.1 °C 85 % 13.5 °C 947.0 hPa 19.3 Km/h SSW 0.0 mm  15.7 °C 16.1 °C
Massarosa (LU) 11/12/17 02.54 13.6 °C 91 % 12.2 °C 990.1 hPa 9.7 Km/h WSW 12.9 mm  13.3 °C 13.7 °C
Montespertoli (FI) 11/12/17 03.02 13.9 °C 82 % 10.9 °C 1002.9 hPa 6.0 Km/h E 2.3 mm  13.9 °C 13.9 °C
Montopoli in val d'Arno Loc. Capanne (PI) 11/12/17 03.10 14.4 °C 87 % 12.3 °C 1001.5 hPa 14.8 Km/h SSW 0.8 mm  0.0 °C 0.0 °C
Pisa zona I Passi (PI) 11/12/17 03.10 14.3 °C 90 % 12.7 °C 1002.3 hPa 12.2 Km/h S 0.0 mm  13.7 °C 14.3 °C
Reggello (FI) 10/12/17 23.14 10.2 °C 94 % 9.3 °C 1008.9 hPa 20.9 Km/h O 1.6 mm  -3.8 °C 10.2 °C
Torri (FI) 11/12/17 01.30 10.6 °C 96 % 9.9 °C 1002.6 hPa 9.7 Km/h SSE 0.3 mm  10.1 °C 10.7 °C
Torrita di Siena (SI) 11/12/17 01.30 13.3 °C 81 % 10.1 °C 1006.6 hPa 9.7 Km/h SE 0.0 mm  13.0 °C 13.3 °C
 
 
Regione TRENTINO A. A.
Località Giorno Ora Temp. Umid. Relat. Dew Point Press. Atm. Velocità Vento Direz. Vento Precip. Temp.
Min
Temp.
Max
Ala (TN) 11/12/17 02.53 -1.6 °C 95 % -2.3 °C 1003.6 hPa 4.6 Km/h ENE 0.0 mm  -1.7 °C -1.5 °C
Avio (TN) 11/12/17 02.54 -0.7 °C 94 % -1.5 °C 1003.1 hPa 0.0 Km/h NE 0.0 mm  -0.8 °C -0.6 °C
Besenello (TN) 11/12/17 02.53 -1.8 °C 87 % -3.7 °C 1005.4 hPa 8.0 Km/h W 0.0 mm  -1.8 °C -1.7 °C
Borgo Valsugana (TN) 11/12/17 03.00 -1.8 °C 89 % -3.4 °C 1001.9 hPa 0.0 Km/h SE 0.0 mm  -2.1 °C -1.8 °C
Calliano (TN) 11/12/17 02.53 -2.6 °C 93 % -3.6 °C 1004.4 hPa 17.7 Km/h E 0.0 mm  -2.7 °C -2.6 °C
Gardolo (TN) 11/12/17 02.53 -2.5 °C 92 % -3.6 °C 1005.7 hPa 8.7 Km/h NE 3.2 mm  -2.6 °C -2.4 °C
Lavis (TN) 11/12/17 02.50 -2.3 °C 92 % -3.3 °C 1004.9 hPa 13.0 Km/h NW 0.0 mm  -2.3 °C -2.2 °C
Margone (TN) 11/12/17 02.50 -3.8 °C 92 % -4.9 °C 1006.1 hPa 11.5 Km/h NNE 0.0 mm  -4.3 °C -3.8 °C
Martignano (TN) 11/12/17 02.55 -3.5 °C 95 % -4.2 °C 1003.7 hPa 0.0 Km/h --- 0.0 mm  -3.6 °C -3.4 °C
Massone di Arco (TN) 11/12/17 02.54 -0.9 °C 96 % -1.5 °C 1002.3 hPa 0.0 Km/h E 0.0 mm  -1.1 °C -0.9 °C
Miola di Piné (TN) 11/12/17 03.10 -4.2 °C 93 % -5.2 °C 1005.0 hPa 0.0 Km/h WSW 0.0 mm  -4.8 °C -4.1 °C
Padergnone (TN) 11/12/17 03.00 -0.1 °C 92 % -1.2 °C 1004.4 hPa 17.4 Km/h NNW 0.0 mm  -0.9 °C -0.1 °C
Taio Mollaro (TN) 11/12/17 03.10 -3.8 °C 92 % -4.9 °C 1003.8 hPa 0.0 Km/h SE 0.0 mm  -3.8 °C -3.7 °C
Trambileno (TN) 11/12/17 03.01 -4.1 °C 93 % -5.0 °C 994.5 hPa 0.0 Km/h N 0.0 mm  -4.3 °C -3.9 °C
Trento (TN) 11/12/17 03.11 -1.7 °C 89 % -3.2 °C 1003.8 hPa 14.5 Km/h NNE 0.0 mm  -1.8 °C -1.7 °C
Vattaro fraz. Pian dei Pradi (TN) 11/12/17 03.09 -4.3 °C 94 % -5.2 °C 1005.1 hPa 0.0 Km/h NE 0.0 mm  -4.4 °C -4.1 °C
 
 
Regione UMBRIA
Località Giorno Ora Temp. Umid. Relat. Dew Point Press. Atm. Velocità Vento Direz. Vento Precip. Temp.
Min
Temp.
Max
Castiglione del Lago (PG) 11/12/17 02.50 12.8 °C 77 % 8.9 °C 1007.8 hPa 19.3 Km/h S 0.8 mm  11.2 °C 12.9 °C
Foligno (PG) 11/12/17 02.40 12.1 °C 83 % 9.3 °C 1006.7 hPa 16.1 Km/h SW 1.5 mm  9.8 °C 12.2 °C
Orvieto (TR) 11/12/17 00.31 9.3 °C 92 % 8.1 °C 1005.4 hPa 6.5 Km/h SE 1.0 mm  9.2 °C 10.1 °C
Todi (PG) 11/12/17 01.35 8.8 °C 86 % 6.6 °C 1006.6 hPa 3.0 Km/h E 1.8 mm  7.9 °C 8.8 °C
 
 
Regione VALLE DAOSTA
Località Giorno Ora Temp. Umid. Relat. Dew Point Press. Atm. Velocità Vento Direz. Vento Precip. Temp.
Min
Temp.
Max
Colle del Piccolo San Bernardo La Thuile (AO) 11/12/17 02.59 -9.9 °C 92 % -11.1 °C 1000.6 hPa 4.8 Km/h W 0.0 mm  -10.9 °C -9.5 °C
 
 
Regione VENETO
Località Giorno Ora Temp. Umid. Relat. Dew Point Press. Atm. Velocità Vento Direz. Vento Precip. Temp.
Min
Temp.
Max
Abano (PD) 11/12/17 02.55 1.6 °C 97 % 1.2 °C 1002.5 hPa 1.6 Km/h WNW 2.4 mm  1.2 °C 1.6 °C
Alleghe Lago (BL) 11/12/17 02.54 -3.9 °C 90 % -5.3 °C 1000.9 hPa 2.2 Km/h NNE 0.0 mm  -4.6 °C -3.8 °C
Arquà Polesine (RO) 11/12/17 02.53 0.6 °C 95 % -0.1 °C 1004.3 hPa 4.8 Km/h WNW 0.2 mm  0.6 °C 0.9 °C
Arzignano loc. Castello (VI) 10/12/17 22.45 0.3 °C 94 % -0.6 °C 1004.1 hPa 0.0 Km/h --- 0.0 mm  -1.5 °C 2.1 °C
Arzignano Pugnello (VI) 11/12/17 02.53 0.7 °C 94 % 0.0 °C 1001.3 hPa 0.0 Km/h W 0.0 mm  0.2 °C 0.7 °C
Arzignano San Bortolo (VI) 11/12/17 03.01 1.9 °C 94 % 1.1 °C 1000.6 hPa 0.0 Km/h WNW 0.0 mm  0.8 °C 2.0 °C
Arzignano Tezze (VI) 11/12/17 03.04 0.3 °C 99 % 0.1 °C 1002.6 hPa 0.0 Km/h NNW 0.0 mm  0.2 °C 0.4 °C
Asiago Rifugio Val Formica (VI) 11/12/17 03.00 0.2 °C 97 % -0.2 °C 1003.9 hPa 13.0 Km/h SSE 0.0 mm  -2.7 °C 0.2 °C
Badia Calavena loc. San Valentino (VR) 11/12/17 02.53 0.2 °C 95 % -0.5 °C 1000.6 hPa 4.8 Km/h NNE 1.4 mm  -0.7 °C 0.4 °C
Bardolino (VR) 11/12/17 02.53 0.1 °C 94 % -0.6 °C 995.8 hPa 24.0 Km/h ENE 0.0 mm  -0.3 °C 0.2 °C
Bassano del Grappa (VI) 10/12/17 22.55 1.0 °C 91 % -0.3 °C 991.1 hPa 1.6 Km/h E 5.0 mm  -2.4 °C 3.3 °C
Belluno Castion (BL) 11/12/17 02.45 -3.4 °C 91 % -4.7 °C 1004.3 hPa 0.0 Km/h S 0.0 mm  -3.7 °C -3.4 °C
Bresega (PD) 11/12/17 02.53 0.9 °C 95 % 0.0 °C 1003.3 hPa 5.0 Km/h WSW 0.4 mm  0.8 °C 1.1 °C
Brugine2 (PD) 11/12/17 02.49 0.9 °C 85 % -1.3 °C 1003.5 hPa 0.2 Km/h WNW 2.0 mm  0.6 °C 0.9 °C
Camposampiero (PD) 11/12/17 02.59 0.9 °C 98 % 0.6 °C 1003.0 hPa 0.0 Km/h W 1.0 mm  0.7 °C 0.9 °C
Caprino (VR) 11/12/17 02.54 -0.4 °C 94 % -1.3 °C 1001.5 hPa 0.0 Km/h SW 4.8 mm  -0.8 °C -0.4 °C
Carceri (PD) 11/12/17 03.03 0.7 °C 95 % 0.0 °C 1002.3 hPa 4.8 Km/h W 0.8 mm  0.7 °C 0.7 °C
Cartigliano (VI) 11/12/17 02.53 0.4 °C 96 % -0.1 °C 1002.4 hPa 0.0 Km/h NE 8.8 mm  0.2 °C 0.4 °C
Cartura (PD) 11/12/17 02.54 0.6 °C 93 % -0.4 °C 1001.7 hPa 4.5 Km/h W 1.4 mm  0.2 °C 0.6 °C
Castel d'Azzano (VR) 11/12/17 02.55 0.4 °C 95 % -0.3 °C 965.1 hPa 0.0 Km/h --- 4.8 mm  0.3 °C 0.6 °C
Castelfranco Veneto (TV) 11/12/17 02.00 0.6 °C 100 % 0.6 °C 1003.4 hPa 0.0 Km/h --- 0.6 mm  0.3 °C 0.6 °C
Castelfranco Veneto2 (TV) 11/12/17 02.38 -573.3 °C 255 % -73.3 °C 1004.3 hPa 0.0 Km/h N 6.1 mm  -573.3 °C -573.3 °C
Castelgomberto (VI) 11/12/17 02.54 0.6 °C 92 % -0.5 °C 1002.3 hPa 0.0 Km/h SSE 8.6 mm  0.3 °C 0.8 °C
Cavazzale (VI) 10/12/17 16.05 0.6 °C 84 % -1.8 °C 1008.9 hPa 0.0 Km/h --- 0.0 mm  -3.6 °C 1.9 °C
Cerea (VR) 10/12/17 23.15 0.1 °C 96 % -0.5 °C 1004.8 hPa 3.2 Km/h W 0.3 mm  -4.6 °C 2.4 °C
Cerea2 (VR) 11/12/17 00.10 -0.1 °C 89 % -1.7 °C 1001.2 hPa 6.0 Km/h WSW 0.3 mm  -0.1 °C -0.1 °C
Cima Grappa (TV) 11/12/17 02.54 -1.4 °C 97 % -1.9 °C 1006.6 hPa 14.6 Km/h SW 0.0 mm  -2.9 °C -1.4 °C
Cismon del Grappa loc. Corlo (VI) 11/12/17 02.54 -3.0 °C 97 % -3.4 °C 1004.4 hPa 5.0 Km/h N 0.0 mm  -3.3 °C -2.9 °C
Cittadella (PD) 10/12/17 20.45 0.5 °C 87 % -1.4 °C 1004.7 hPa 0.0 Km/h SE 0.0 mm  -2.5 °C 2.4 °C
Cogollo del Cengio (VI) 11/12/17 02.49 0.1 °C 99 % 0.0 °C 1001.1 hPa 2.9 Km/h NW 0.0 mm  0.0 °C 0.2 °C
Colle S. Lucia Posalz (BL) 11/12/17 02.54 -2.9 °C 99 % -3.0 °C 1007.5 hPa 0.0 Km/h S 0.0 mm  -3.4 °C -2.8 °C
Cologna Veneta Sant'Andrea (VR) 11/12/17 02.55 0.3 °C 60 % -6.5 °C 1003.1 hPa 0.0 Km/h WNW 4.0 mm  0.3 °C 0.5 °C
Colognola ai Colli (VR) 11/12/17 02.55 0.3 °C 94 % -0.5 °C 1004.1 hPa 0.0 Km/h --- 2.4 mm  0.3 °C 0.4 °C
Contrada Dosso Gervasio (VR) 11/12/17 02.45 0.1 °C 96 % -0.6 °C 1001.6 hPa 2.0 Km/h NNE 0.2 mm  -0.8 °C 1.1 °C
Corrubio di S. Anna d'Alfaedo (VR) 11/12/17 02.55 -0.3 °C 97 % -0.7 °C 1004.0 hPa 0.0 Km/h --- 0.0 mm  -1.3 °C -0.1 °C
Costa di Vittorio Veneto (TV) 11/12/17 03.01 1.3 °C 96 % 0.7 °C 1001.6 hPa 0.0 Km/h NE 6.3 mm  0.5 °C 1.3 °C
Crespano del Grappa (TV) 11/12/17 03.04 1.0 °C 89 % -0.6 °C 1002.6 hPa 0.0 Km/h N 0.0 mm  0.7 °C 1.1 °C
Dossobuono (VR) 11/12/17 02.54 0.2 °C 96 % -0.4 °C 1004.8 hPa 0.0 Km/h WSW 1.4 mm  -0.1 °C 0.2 °C
Erbezzo Passo Fittanze (VR) 09/12/17 12.02 -4.5 °C 39 % -16.4 °C 1014.4 hPa 29.1 Km/h NW 0.0 mm  -5.6 °C -2.1 °C
Falzè di Piave (TV) 10/12/17 21.21 -0.1 °C 95 % -0.8 °C 1007.0 hPa 0.0 Km/h --- 0.0 mm  -6.0 °C 1.3 °C
Farra di Soligo (TV) 11/12/17 02.53 0.4 °C 80 % -2.6 °C 1007.8 hPa 0.0 Km/h SW 4.8 mm  -0.6 °C 0.6 °C
Favaro Veneto (VE) 11/12/17 02.50 0.9 °C 90 % -0.6 °C 1003.2 hPa 1.6 Km/h NNW 2.0 mm  0.7 °C 0.9 °C
Feltre Celarda (BL) 11/12/17 02.54 -3.5 °C 93 % -4.5 °C 1002.1 hPa 0.0 Km/h NE 0.0 mm  -3.6 °C -3.5 °C
Ferrara di M.B. (VR) 11/12/17 02.40 -0.9 °C 96 % -1.4 °C 999.1 hPa 0.0 Km/h --- 0.0 mm  -2.7 °C -0.6 °C
Gallio (VI) 11/12/17 03.00 -2.1 °C 97 % -2.4 °C 1004.3 hPa 6.4 Km/h NNE 0.0 mm  -3.3 °C -2.1 °C
Jesolo (VE) 04/12/17 06.45 1.8 °C 28 % -14.8 °C 1023.0 hPa 3.2 Km/h NNW 0.0 mm  -1.1 °C 1.8 °C
Legnago (VR) 11/12/17 02.55 0.4 °C 98 % 0.1 °C 1003.4 hPa 0.0 Km/h SW 0.6 mm  0.3 °C 0.4 °C
Lugagnano (VR) 11/12/17 01.53 0.3 °C 96 % 0.0 °C 1002.2 hPa 0.0 Km/h NNE 1.0 mm  0.0 °C 0.3 °C
Lusiana Sciessere (VI) 11/12/17 02.59 0.3 °C 96 % -0.3 °C 1000.6 hPa 0.0 Km/h ESE 0.0 mm  -0.1 °C 0.4 °C
Marano Vicentino2 (VI) 11/12/17 02.50 -0.1 °C 93 % -1.1 °C 1001.4 hPa 0.0 Km/h WNW 4.1 mm  -0.1 °C -0.1 °C
Marostica Valle San Floriano (VI) 11/12/17 02.54 0.4 °C 97 % 0.0 °C 1004.2 hPa 0.0 Km/h W 5.0 mm  0.3 °C 0.5 °C
Mazzurega (VR) 09/12/17 05.12 4.3 °C 35 % -9.8 °C 1007.0 hPa 6.4 Km/h WNW 0.0 mm  4.3 °C 5.9 °C
Merlara (PD) 11/12/17 02.55 -0.3 °C 95 % -1.0 °C 1002.9 hPa 3.2 Km/h WNW 0.5 mm  -0.3 °C 0.1 °C
Molina (VR) 11/12/17 03.07 0.5 °C 81 % -2.4 °C 1001.2 hPa 0.0 Km/h NNE 0.0 mm  0.0 °C 0.6 °C
Montebello Vicentino loc. Selva (VI) 11/12/17 03.10 0.1 °C 96 % -0.5 °C 1003.0 hPa 3.9 Km/h NW 0.0 mm  0.1 °C 1.5 °C
Montecchio Maggiore La Valle (VI) 11/12/17 03.02 0.4 °C 1 % -49.8 °C 996.8 hPa 0.0 Km/h N 0.0 mm  0.3 °C 0.4 °C
Montecchio Maggiore Sant'Urbano (VI) 11/12/17 03.04 0.4 °C 86 % -1.7 °C 1003.6 hPa 0.0 Km/h NE 2.8 mm  0.1 °C 0.4 °C
Monteforte d'Alpone (VR) 11/12/17 02.55 0.4 °C 96 % -0.2 °C 1001.9 hPa 4.8 Km/h SW 5.8 mm  0.3 °C 0.4 °C
Montorio (VR) 11/12/17 02.58 0.4 °C 96 % -0.2 °C 1005.6 hPa 0.0 Km/h ENE 0.0 mm  0.2 °C 0.5 °C
Montorso Vicentino (VI) 11/12/17 03.10 0.8 °C 94 % 0.0 °C 1002.7 hPa 0.0 Km/h NNE 1.8 mm  0.0 °C 0.9 °C
Onara extraurbana (PD) 11/12/17 03.08 0.4 °C 69 % -4.6 °C 995.8 hPa 0.0 Km/h NW 2.1 mm  0.3 °C 0.4 °C
Oppeano (VR) 10/12/17 17.35 0.1 °C 89 % -1.5 °C 1003.1 hPa 0.0 Km/h ENE 0.0 mm  -4.6 °C 3.1 °C
Pastrengo (VR) 11/12/17 03.04 0.0 °C 93 % -1.0 °C 1003.6 hPa 0.0 Km/h NE 0.0 mm  -1.0 °C 0.0 °C
Pastrengo Corné (VR) 11/12/17 02.55 0.0 °C 0 % 0.0 °C 1002.3 hPa 0.0 Km/h N 0.0 mm  -1.9 °C -0.7 °C
Pedemonte (VR) 11/12/17 02.55 0.4 °C 93 % -0.6 °C 1002.8 hPa 0.0 Km/h N 0.0 mm  0.3 °C 0.4 °C
Pescantina Are (VR) 11/12/17 03.07 0.2 °C 98 % -0.1 °C 1002.6 hPa 0.0 Km/h WSW 0.0 mm  -0.3 °C 0.3 °C
Pojana Maggiore Cagnano (VI) 11/12/17 03.09 0.7 °C 90 % -0.7 °C 1002.6 hPa 1.1 Km/h W 2.4 mm  0.7 °C 1.5 °C
Ponte San Nicolò (PD) 11/12/17 03.07 1.3 °C 95 % 0.6 °C 1002.6 hPa 4.8 Km/h W 0.8 mm  1.0 °C 1.3 °C
Rifugio Bocca di Selva (VR) 11/12/17 03.10 0.1 °C 98 % -0.2 °C 1003.8 hPa 40.2 Km/h W 0.0 mm  -1.3 °C 0.1 °C
Rifugio Primaneve (VR) 11/12/17 02.56 -1.2 °C 99 % -1.3 °C 1005.3 hPa 22.5 Km/h SW 0.0 mm  -2.4 °C -1.2 °C
Romano d'Ezzelino Fellette (VI) 11/12/17 03.10 0.6 °C 88 % -1.2 °C 1006.0 hPa 0.0 Km/h WNW 6.7 mm  0.2 °C 0.6 °C
Rosolina (RO) 11/12/17 03.00 3.1 °C 99 % 2.9 °C 1003.3 hPa 4.8 Km/h NNW 0.0 mm  3.1 °C 3.4 °C
S. Giovanni Ilarione2 (VR) 11/12/17 02.55 0.5 °C 95 % -0.2 °C 1003.3 hPa 0.0 Km/h --- 0.0 mm  0.4 °C 0.9 °C
S. Giovanni Lupatoto (VR) 11/12/17 02.50 0.6 °C 96 % 0.0 °C 1003.8 hPa 0.0 Km/h --- 4.0 mm  0.4 °C 0.6 °C
S. Lorenzo di Vittorio Veneto (TV) 11/12/17 03.10 1.1 °C 94 % 0.2 °C 1003.3 hPa 0.0 Km/h N 7.4 mm  0.3 °C 1.1 °C
S. Maria di Zevio Loc. 3 Ponti (VR) 11/12/17 03.10 0.1 °C 98 % 0.0 °C 1005.1 hPa 1.0 Km/h NE 4.6 mm  0.1 °C 1.2 °C
S. Maria Maddalena (RO) 11/12/17 03.05 1.0 °C 94 % 0.0 °C 1002.3 hPa 3.2 Km/h W 0.4 mm  0.9 °C 1.2 °C
S. Martino Lupari (PD) 08/12/17 09.10 2.7 °C 91 % 1.4 °C 1019.0 hPa 0.0 Km/h --- 0.0 mm  0.9 °C 2.8 °C
S. Rocco di Villabalzana (VI) 11/12/17 03.13 0.7 °C 94 % 0.0 °C 1002.5 hPa 1.7 Km/h SSW 2.0 mm  0.2 °C 0.7 °C
S. Zeno di Mont. Prada (VR) 11/12/17 02.55 0.1 °C 95 % -0.6 °C 1003.1 hPa 0.0 Km/h --- 0.0 mm  -2.2 °C 0.3 °C
Salcedo (VI) 11/12/17 03.10 0.5 °C 83 % -2.1 °C 1000.4 hPa 0.0 Km/h N 2.6 mm  0.1 °C 0.5 °C
San Nazario (VI) 11/12/17 03.01 0.5 °C 93 % -0.5 °C 1002.6 hPa 11.1 Km/h N 0.0 mm  0.0 °C 0.5 °C
San Pietro in Cariano (VR) 11/12/17 03.09 0.3 °C 95 % -0.4 °C 1001.2 hPa 0.0 Km/h SE 0.0 mm  -0.4 °C 0.3 °C
San Zeno di Mont. Loc. Castello (VR) 11/12/17 03.10 -1.3 °C 93 % -2.2 °C 1002.0 hPa 0.0 Km/h W 0.0 mm  -1.4 °C -0.7 °C
Sarcedo (VI) 11/12/17 03.10 0.5 °C 97 % 0.1 °C 1001.8 hPa 0.0 Km/h NW 4.2 mm  0.2 °C 0.6 °C
Schio (VI) 11/12/17 02.40 0.7 °C 94 % -0.2 °C 1004.6 hPa 0.0 Km/h --- 7.6 mm  0.6 °C 0.7 °C
Schio Monte Magré (VI) 11/12/17 03.11 1.0 °C 96 % 0.4 °C 0.0 hPa 0.0 Km/h W 3.8 mm  0.8 °C 1.0 °C
Soave Borgo Bassano (VR) 11/12/17 02.55 0.6 °C 98 % 0.3 °C 1004.0 hPa 0.0 Km/h SSW 2.6 mm  0.5 °C 0.8 °C
Sona Loc. La Colombara (VR) 11/12/17 03.00 0.4 °C 96 % -0.6 °C 999.6 hPa 0.0 Km/h WNW 0.0 mm  -0.4 °C 0.4 °C
Tombolo (PD) 11/12/17 03.11 0.3 °C 97 % -0.1 °C 1003.7 hPa 0.9 Km/h NNE 6.2 mm  0.2 °C 0.3 °C
Tregnago Loc. Centro (VR) 11/12/17 01.35 0.0 °C 0 % 0.0 °C 0.0 hPa 0.0 Km/h 0.00 0.0 mm  -0.6 °C 0.0 °C
Treviso (TV) 11/12/17 03.09 1.0 °C 92 % -0.1 °C 1003.7 hPa 2.0 Km/h SO 2.1 mm  0.1 °C 1.0 °C
Val Lastaro (VI) 11/12/17 02.00 -2.1 °C 96 % -2.8 °C 1005.7 hPa 0.0 Km/h W 0.0 mm  -2.6 °C -2.0 °C
Valdobbiadene San Pietro di Barbozza (TV) 11/12/17 01.30 1.8 °C 95 % 1.1 °C 1002.5 hPa 0.0 Km/h --- 2.6 mm  1.0 °C 1.9 °C
Valli del Pasubio loc. Gisbenti (VI) 11/12/17 03.11 1.1 °C 63 % -5.2 °C 958.0 hPa 0.0 Km/h --- 0.0 mm  0.4 °C 1.1 °C
Vazzo Roveré Veronese (VR) 11/12/17 03.11 1.1 °C 93 % 0.1 °C 1000.3 hPa 0.0 Km/h NNW 1.4 mm  -1.1 °C 1.3 °C
Verona Bgo Venezia (iz3sly) (VR) 11/12/17 02.58 0.7 °C 92 % -0.5 °C 1001.9 hPa 0.0 Km/h NE 2.5 mm  0.5 °C 0.7 °C
Vestenanova (VR) 11/12/17 03.10 -0.7 °C 83 % -3.2 °C 1005.5 hPa 5.0 Km/h NE 0.0 mm  -0.7 °C -0.7 °C
Vicenza Campedello (VI) 11/12/17 03.16 0.3 °C 98 % 0.0 °C 1003.5 hPa 0.0 Km/h NW 3.0 mm  0.1 °C 0.3 °C
Vicenza Moracchino (VI) 09/12/17 21.49 1.8 °C 45 % -8.9 °C 1014.2 hPa 8.0 Km/h SW 0.0 mm  1.7 °C 8.8 °C
Vicenza Pecori Giraldi (VI) 11/12/17 03.00 0.7 °C 100 % 0.7 °C 1015.1 hPa 0.0 Km/h N 0.0 mm  0.0 °C 3.7 °C
Vicenza S. Lazzaro (VI) 11/12/17 03.11 0.7 °C 94 % 0.0 °C 1002.3 hPa 0.0 Km/h WSW 3.8 mm  0.3 °C 0.7 °C
Vicenza San Bortolo (VI) 10/12/17 21.34 -0.4 °C 96 % -1.0 °C 1006.7 hPa 0.0 Km/h NW 0.0 mm  -4.1 °C 1.7 °C
Vicenza San Gaetano (VI) 10/12/17 22.46 0.9 °C 96 % 0.3 °C 1004.9 hPa 0.0 Km/h N 0.0 mm  -2.5 °C 2.8 °C
Vidor (TV) 11/12/17 01.36 0.3 °C 91 % -1.0 °C 1001.7 hPa 0.0 Km/h NW 0.5 mm  0.2 °C 0.3 °C
Vigasio (VR) 11/12/17 01.30 0.8 °C 96 % 0.3 °C 1001.8 hPa 0.0 Km/h --- 1.0 mm  0.7 °C 0.8 °C
Vittorio Veneto (TV) 11/12/17 00.15 0.7 °C 89 % -0.9 °C 1003.6 hPa 0.0 Km/h SSE 0.5 mm  0.6 °C 0.7 °C
Vittorio Veneto Parco Fenderl (TV) 11/12/17 00.20 1.3 °C 86 % -0.8 °C 1004.3 hPa 6.4 Km/h NNW 0.5 mm  1.3 °C 1.4 °C
Volpago del Montello (TV) 11/12/17 01.30 1.0 °C 93 % 0.0 °C 1003.2 hPa 0.0 Km/h --- 2.5 mm  0.8 °C 1.0 °C
 
 
 
(*) = Precipitazioni nelle ultime 24h.
Dati non aggiornati nell'ultima ora.
   
In collaborazione con:
 
Top! Top!